createdAt,value
2018-12-07T00:02:15.290Z,19.20
2018-12-07T00:04:45.700Z,20.30
2018-12-07T00:07:15.472Z,21.13
2018-12-07T00:09:45.338Z,20.47
2018-12-07T00:12:15.244Z,20.40
2018-12-07T00:14:45.836Z,24.43
2018-12-07T00:17:15.623Z,21.20
2018-12-07T00:19:48.215Z,19.17
2018-12-07T00:22:18.306Z,19.05
2018-12-07T00:24:48.320Z,20.50
2018-12-07T00:27:18.206Z,21.35
2018-12-07T00:29:57.463Z,20.35
2018-12-07T00:32:27.294Z,21.90
2018-12-07T00:34:58.746Z,22.85
2018-12-07T00:37:28.762Z,20.90
2018-12-07T00:39:58.495Z,19.90
2018-12-07T00:42:28.475Z,21.53
2018-12-07T00:44:58.292Z,22.37
2018-12-07T00:47:28.232Z,18.33
2018-12-07T00:49:58.254Z,21.47
2018-12-07T00:52:28.080Z,20.70
2018-12-07T00:54:58.123Z,18.67
2018-12-07T00:57:28.063Z,18.90
2018-12-07T00:59:58.430Z,18.32
2018-12-07T01:02:28.386Z,15.77
2018-12-07T01:04:58.303Z,15.53
2018-12-07T01:07:28.433Z,17.57
2018-12-07T01:09:58.113Z,15.23
2018-12-07T01:12:28.071Z,15.87
2018-12-07T01:14:58.011Z,16.15
2018-12-07T01:17:33.859Z,14.68
2018-12-07T01:20:03.542Z,17.00
2018-12-07T01:22:33.345Z,14.67
2018-12-07T01:25:03.449Z,14.70
2018-12-07T01:27:33.159Z,14.87
2018-12-07T01:30:03.151Z,14.23
2018-12-07T01:32:33.020Z,14.70
2018-12-07T01:35:02.966Z,14.70
2018-12-07T01:37:33.154Z,14.40
2018-12-07T01:40:03.672Z,9.73
2018-12-07T01:42:34.835Z,10.65
2018-12-07T01:45:04.808Z,10.00
2018-12-07T01:47:38.842Z,12.33
2018-12-07T01:50:08.853Z,10.60
2018-12-07T01:52:38.555Z,8.97
2018-12-07T01:55:08.594Z,9.63
2018-12-07T01:57:38.328Z,8.20
2018-12-07T02:00:09.039Z,9.47
2018-12-07T02:02:39.111Z,12.23
2018-12-07T02:05:09.735Z,9.57
2018-12-07T02:07:39.429Z,8.70
2018-12-07T02:10:10.582Z,9.17
2018-12-07T02:12:40.279Z,11.73
2018-12-07T02:15:10.343Z,10.15
2018-12-07T02:17:40.472Z,13.57
2018-12-07T02:20:10.152Z,9.03
2018-12-07T02:22:40.285Z,10.53
2018-12-07T02:25:10.309Z,9.97
2018-12-07T02:27:45.446Z,9.60
2018-12-07T02:30:23.920Z,12.67
2018-12-07T02:32:53.687Z,10.20
2018-12-07T02:35:23.378Z,12.60
2018-12-07T02:37:53.075Z,9.37
2018-12-07T02:40:28.236Z,11.35
2018-12-07T02:42:58.051Z,14.40
2018-12-07T02:45:28.169Z,12.67
2018-12-07T02:47:58.050Z,13.20
2018-12-07T02:50:28.213Z,10.93
2018-12-07T02:52:58.334Z,12.25
2018-12-07T02:55:28.383Z,10.53
2018-12-07T02:57:58.539Z,12.43
2018-12-07T03:00:29.472Z,11.90
2018-12-07T03:02:59.227Z,11.13
2018-12-07T03:05:29.265Z,12.03
2018-12-07T03:07:59.050Z,10.03
2018-12-07T03:10:29.105Z,11.15
2018-12-07T03:12:59.074Z,14.65
2018-12-07T03:15:29.145Z,13.30
2018-12-07T03:18:00.659Z,10.58
2018-12-07T03:20:30.525Z,13.70
2018-12-07T03:23:00.202Z,13.47
2018-12-07T03:25:30.296Z,13.45
2018-12-07T03:28:00.330Z,11.80
2018-12-07T03:30:30.319Z,9.97
2018-12-07T03:33:00.543Z,10.50
2018-12-07T03:35:30.262Z,11.10
2018-12-07T03:38:00.054Z,10.13
2018-12-07T03:40:30.092Z,11.50
2018-12-07T03:43:00.206Z,12.30
2018-12-07T03:45:30.322Z,12.20
2018-12-07T03:48:00.285Z,9.87
2018-12-07T03:50:30.503Z,10.17
2018-12-07T03:53:00.392Z,10.90
2018-12-07T03:55:30.110Z,8.87
2018-12-07T03:58:00.340Z,11.22
2018-12-07T04:00:30.333Z,8.47
2018-12-07T04:03:00.430Z,12.13
2018-12-07T04:05:30.161Z,8.70
2018-12-07T04:08:00.219Z,9.23
2018-12-07T04:10:30.331Z,12.20
2018-12-07T04:13:00.318Z,10.10
2018-12-07T04:15:30.809Z,8.98
2018-12-07T04:18:00.514Z,9.67
2018-12-07T04:20:30.226Z,10.27
2018-12-07T04:23:00.120Z,11.03
2018-12-07T04:25:33.688Z,9.77
2018-12-07T04:28:03.555Z,11.03
2018-12-07T04:30:33.442Z,13.23
2018-12-07T04:33:03.378Z,10.33
2018-12-07T04:35:33.410Z,10.17
2018-12-07T04:38:03.394Z,11.30
2018-12-07T04:40:33.462Z,10.47
2018-12-07T04:43:03.269Z,12.37
2018-12-07T04:45:33.394Z,8.87
2018-12-07T04:48:03.313Z,11.63
2018-12-07T04:50:33.364Z,10.13
2018-12-07T04:53:03.560Z,9.95
2018-12-07T04:55:33.467Z,12.30
2018-12-07T04:58:03.330Z,8.80
2018-12-07T05:00:33.136Z,11.73
2018-12-07T05:03:03.026Z,9.60
2018-12-07T05:05:33.149Z,10.43
2018-12-07T05:08:03.094Z,13.80
2018-12-07T05:10:33.109Z,10.57
2018-12-07T05:13:04.456Z,10.05
2018-12-07T05:15:34.139Z,9.47
2018-12-07T05:18:04.293Z,10.33
2018-12-07T05:20:34.072Z,10.83
2018-12-07T05:23:04.305Z,11.60
2018-12-07T05:25:34.219Z,9.53
2018-12-07T05:28:09.036Z,10.93
2018-12-07T05:30:39.313Z,10.93
2018-12-07T05:33:09.845Z,11.37
2018-12-07T05:35:39.917Z,12.68
2018-12-07T05:38:09.671Z,12.20
2018-12-07T05:40:39.488Z,12.73
2018-12-07T05:43:09.502Z,11.93
2018-12-07T05:45:39.269Z,12.23
2018-12-07T05:48:09.515Z,12.20
2018-12-07T05:50:39.207Z,12.40
2018-12-07T05:53:09.100Z,12.07
2018-12-07T05:55:39.147Z,13.33
2018-12-07T05:58:09.502Z,12.80
2018-12-07T06:00:39.408Z,12.13
2018-12-07T06:03:09.465Z,10.70
2018-12-07T06:05:40.575Z,11.45
2018-12-07T06:08:10.330Z,11.23
2018-12-07T06:10:40.699Z,10.53
2018-12-07T06:13:10.536Z,10.50
2018-12-07T06:15:40.419Z,8.73
2018-12-07T06:18:10.592Z,12.07
2018-12-07T06:20:40.460Z,11.70
2018-12-07T06:23:11.594Z,11.50
2018-12-07T06:25:41.582Z,11.37
2018-12-07T06:28:11.443Z,12.27
2018-12-07T06:30:53.940Z,12.70
2018-12-07T06:33:24.045Z,11.40
2018-12-07T06:35:54.174Z,12.70
2018-12-07T06:38:24.300Z,11.20
2018-12-07T06:40:54.705Z,11.50
2018-12-07T06:43:24.543Z,12.37
2018-12-07T06:45:54.400Z,11.87
2018-12-07T06:48:24.294Z,10.10
2018-12-07T06:50:54.100Z,10.23
2018-12-07T06:53:24.310Z,11.40
2018-12-07T06:55:54.389Z,10.13
2018-12-07T06:58:24.809Z,11.60
2018-12-07T07:00:54.644Z,10.97
2018-12-07T07:03:24.534Z,9.90
2018-12-07T07:05:55.516Z,11.30
2018-12-07T07:08:25.216Z,10.53
2018-12-07T07:10:55.183Z,12.13
2018-12-07T07:13:25.252Z,12.40
2018-12-07T07:15:55.128Z,11.27
2018-12-07T07:18:25.577Z,12.33
2018-12-07T07:20:56.738Z,12.95
2018-12-07T07:23:26.739Z,14.90
2018-12-07T07:25:56.679Z,13.30
2018-12-07T07:28:26.434Z,20.53
2018-12-07T07:30:56.529Z,62.30
2018-12-07T07:33:26.404Z,165.80
2018-12-07T07:35:56.843Z,182.07
2018-12-07T07:38:27.711Z,363.75
2018-12-07T07:40:57.610Z,371.00
2018-12-07T07:43:27.568Z,702.10
2018-12-07T07:45:57.440Z,190.67
2018-12-07T07:48:27.239Z,443.73
2018-12-07T07:50:57.698Z,1465.03
2018-12-07T07:53:27.684Z,816.03
2018-12-07T07:55:57.482Z,428.10
2018-12-07T07:58:27.432Z,427.27
2018-12-07T08:00:57.322Z,289.57
2018-12-07T08:03:28.003Z,216.07
2018-12-07T08:05:58.272Z,142.00
2018-12-07T08:08:28.100Z,119.02
2018-12-07T08:10:58.671Z,126.27
2018-12-07T08:13:28.734Z,131.37
2018-12-07T08:15:58.505Z,51.17
2018-12-07T08:18:28.526Z,37.73
2018-12-07T08:20:58.343Z,62.63
2018-12-07T08:23:28.247Z,15.47
2018-12-07T08:25:58.503Z,49.67
2018-12-07T08:28:28.817Z,22.27
2018-12-07T08:30:58.824Z,24.43
2018-12-07T08:33:28.864Z,27.20
2018-12-07T08:35:58.729Z,21.30
2018-12-07T08:38:28.566Z,24.10
2018-12-07T08:40:58.628Z,99.77
2018-12-07T08:43:28.657Z,10.77
2018-12-07T08:45:58.387Z,12.67
2018-12-07T08:48:28.379Z,20.40
2018-12-07T08:50:58.227Z,33.53
2018-12-07T08:53:28.272Z,20.32
2018-12-07T08:55:58.335Z,40.40
2018-12-07T08:58:28.402Z,34.53
2018-12-07T09:00:59.583Z,14.43
2018-12-07T09:03:29.283Z,10.50
2018-12-07T09:06:03.316Z,10.47
2018-12-07T09:08:33.139Z,14.33
2018-12-07T09:11:03.218Z,10.98
2018-12-07T09:13:33.097Z,10.07
2018-12-07T09:16:03.393Z,11.80
2018-12-07T09:18:33.498Z,10.00
2018-12-07T09:21:03.516Z,9.10
2018-12-07T09:23:33.361Z,8.57
2018-12-07T09:26:03.428Z,8.17
2018-12-07T09:28:33.664Z,10.73
2018-12-07T09:31:03.688Z,8.97
2018-12-07T09:33:33.407Z,9.47
2018-12-07T09:36:03.544Z,6.60
2018-12-07T09:38:33.343Z,9.63
2018-12-07T09:41:03.424Z,7.92
2018-12-07T09:43:33.439Z,9.13
2018-12-07T09:46:03.142Z,10.43
2018-12-07T09:48:33.276Z,10.10
2018-12-07T09:51:03.220Z,12.03
2018-12-07T09:53:34.440Z,11.30
2018-12-07T09:56:04.715Z,10.20
2018-12-07T09:58:34.927Z,11.57
2018-12-07T10:01:04.761Z,12.93
2018-12-07T10:03:34.584Z,10.30
2018-12-07T10:06:04.377Z,11.20
2018-12-07T10:08:40.044Z,10.70
2018-12-07T10:11:10.084Z,10.10
2018-12-07T10:13:40.573Z,10.88
2018-12-07T10:16:10.338Z,11.20
2018-12-07T10:18:40.299Z,11.13
2018-12-07T10:21:10.444Z,8.83
2018-12-07T10:23:40.348Z,14.13
2018-12-07T10:26:11.823Z,9.75
2018-12-07T10:28:42.100Z,9.55
2018-12-07T10:31:12.405Z,8.43
2018-12-07T10:33:42.206Z,11.77
2018-12-07T10:36:12.303Z,8.15
2018-12-07T10:38:42.095Z,10.63
2018-12-07T10:41:12.161Z,9.28
2018-12-07T10:43:43.784Z,6.73
2018-12-07T10:46:13.556Z,9.50
2018-12-07T10:48:43.390Z,8.60
2018-12-07T10:51:13.638Z,8.33
2018-12-07T10:53:43.748Z,9.50
2018-12-07T10:56:13.808Z,6.67
2018-12-07T10:58:43.557Z,6.60
2018-12-07T11:01:18.266Z,6.97
2018-12-07T11:03:52.920Z,7.67
2018-12-07T11:06:28.121Z,9.30
2018-12-07T11:09:03.257Z,8.23
2018-12-07T11:11:38.229Z,8.90
2018-12-07T11:14:12.848Z,7.00
2018-12-07T11:16:48.062Z,8.10
2018-12-07T11:19:23.021Z,9.57
2018-12-07T11:21:59.119Z,8.23
2018-12-07T11:24:33.924Z,10.37
2018-12-07T11:27:14.140Z,9.68
2018-12-07T11:29:49.238Z,9.20
2018-12-07T11:32:30.608Z,7.08
2018-12-07T11:35:04.904Z,8.93
2018-12-07T11:37:35.232Z,7.03
2018-12-07T11:40:06.739Z,7.50
2018-12-07T11:42:36.671Z,8.37
2018-12-07T11:45:07.273Z,7.87
2018-12-07T11:47:37.155Z,9.00
2018-12-07T11:50:08.266Z,7.83
2018-12-07T11:52:38.113Z,7.20
2018-12-07T11:55:08.345Z,6.33
2018-12-07T11:57:38.391Z,7.10
2018-12-07T12:00:10.069Z,7.73
2018-12-07T12:02:40.297Z,6.78
2018-12-07T12:05:10.215Z,5.20
2018-12-07T12:07:40.211Z,5.87
2018-12-07T12:10:10.342Z,4.92
2018-12-07T12:12:40.422Z,5.33
2018-12-07T12:15:10.151Z,7.17
2018-12-07T12:17:40.108Z,7.60
2018-12-07T12:20:10.371Z,6.97
2018-12-07T12:22:40.252Z,8.37
2018-12-07T12:25:10.077Z,7.23
2018-12-07T12:27:40.051Z,7.58
2018-12-07T12:30:10.322Z,7.03
2018-12-07T12:32:40.419Z,7.37
2018-12-07T12:35:10.308Z,9.20
2018-12-07T12:37:40.089Z,8.60
2018-12-07T12:40:10.143Z,7.43
2018-12-07T12:42:40.259Z,8.83
2018-12-07T12:45:11.316Z,7.97
2018-12-07T12:47:41.437Z,9.03
2018-12-07T12:50:16.210Z,7.30
2018-12-07T12:52:46.338Z,7.92
2018-12-07T12:55:16.615Z,6.90
2018-12-07T12:57:46.524Z,7.30
2018-12-07T13:00:16.316Z,7.70
2018-12-07T13:02:46.451Z,5.67
2018-12-07T13:05:16.588Z,7.40
2018-12-07T13:07:46.278Z,6.47
2018-12-07T13:10:16.121Z,6.10
2018-12-07T13:12:46.148Z,10.47
2018-12-07T13:15:16.444Z,6.40
2018-12-07T13:17:46.655Z,7.40
2018-12-07T13:20:16.637Z,8.87
2018-12-07T13:22:46.580Z,9.03
2018-12-07T13:25:16.373Z,10.50
2018-12-07T13:27:46.584Z,10.00
2018-12-07T13:30:18.662Z,9.93
2018-12-07T13:32:48.995Z,13.03
2018-12-07T13:35:19.329Z,12.23
2018-12-07T13:37:49.429Z,16.00
2018-12-07T13:40:19.279Z,11.80
2018-12-07T13:42:49.566Z,10.88
2018-12-07T13:45:19.767Z,9.83
2018-12-07T13:47:50.319Z,10.17
2018-12-07T13:50:25.289Z,11.80
2018-12-07T13:52:55.352Z,10.80
2018-12-07T13:55:25.545Z,10.97
2018-12-07T13:57:55.886Z,11.90
2018-12-07T14:00:26.635Z,12.50
2018-12-07T14:02:56.827Z,10.17
2018-12-07T14:05:32.160Z,10.68
2018-12-07T14:08:00.031Z,11.57
2018-12-07T14:10:30.705Z,10.50
2018-12-07T14:13:00.949Z,12.30
2018-12-07T14:15:31.556Z,11.08
2018-12-07T14:18:02.018Z,11.57
2018-12-07T14:20:32.487Z,10.85
2018-12-07T14:23:02.702Z,12.93
2018-12-07T14:25:33.037Z,10.98
2018-12-07T14:28:03.287Z,10.17
2018-12-07T14:30:33.383Z,11.43
2018-12-07T14:33:03.697Z,9.73
2018-12-07T14:35:33.960Z,9.43
2018-12-07T14:38:04.105Z,11.75
2018-12-07T14:40:34.628Z,10.85
2018-12-07T14:43:05.513Z,14.18
2018-12-07T14:45:35.765Z,14.20
2018-12-07T14:48:06.271Z,13.10
2018-12-07T14:50:36.662Z,12.43
2018-12-07T14:53:06.740Z,12.00
2018-12-07T14:55:37.944Z,13.30
2018-12-07T14:58:08.202Z,11.57
2018-12-07T15:00:38.452Z,16.03
2018-12-07T15:03:08.555Z,24.83
2018-12-07T15:05:38.846Z,13.50
2018-12-07T15:08:09.539Z,13.77
2018-12-07T15:10:39.714Z,12.83
2018-12-07T15:13:10.327Z,14.68
2018-12-07T15:15:40.476Z,26.53
2018-12-07T15:18:10.820Z,19.67
2018-12-07T15:20:48.704Z,16.60
2018-12-07T15:23:19.199Z,17.85
2018-12-07T15:25:49.500Z,21.20
2018-12-07T15:28:19.622Z,18.13
2018-12-07T15:30:54.712Z,40.57
2018-12-07T15:33:25.324Z,22.45
2018-12-07T15:35:55.985Z,24.73
2018-12-07T15:38:26.742Z,24.97
2018-12-07T15:40:57.266Z,18.25
2018-12-07T15:43:27.699Z,63.73
2018-12-07T15:45:57.925Z,49.13
2018-12-07T15:48:28.601Z,105.43
2018-12-07T15:50:58.680Z,19.60
2018-12-07T15:53:29.486Z,99.37
2018-12-07T15:55:59.766Z,16.77
2018-12-07T15:58:30.222Z,16.00
2018-12-07T16:01:00.670Z,20.43
2018-12-07T16:03:32.368Z,15.05
2018-12-07T16:06:02.740Z,21.30
2018-12-07T16:08:33.406Z,14.13
2018-12-07T16:11:03.667Z,16.00
2018-12-07T16:13:33.832Z,14.38
2018-12-07T16:16:04.493Z,12.70
2018-12-07T16:18:35.169Z,12.53
2018-12-07T16:21:05.678Z,11.93
2018-12-07T16:23:35.877Z,17.60
2018-12-07T16:26:08.196Z,16.13
2018-12-07T16:28:38.492Z,13.53
2018-12-07T16:31:09.284Z,13.00
2018-12-07T16:33:39.332Z,14.03
2018-12-07T16:36:10.103Z,16.53
2018-12-07T16:38:40.427Z,14.80
2018-12-07T16:41:10.406Z,14.83
2018-12-07T16:43:41.696Z,24.30
2018-12-07T16:46:12.203Z,15.35
2018-12-07T16:48:43.086Z,15.98
2018-12-07T16:51:13.906Z,16.83
2018-12-07T16:53:49.209Z,16.20
2018-12-07T16:56:20.720Z,18.27
2018-12-07T16:58:50.873Z,20.40
2018-12-07T17:01:21.373Z,15.13
2018-12-07T17:03:52.983Z,17.43
2018-12-07T17:06:24.201Z,15.03
2018-12-07T17:08:55.700Z,15.63
2018-12-07T17:11:26.736Z,15.50
2018-12-07T17:13:56.981Z,16.37
2018-12-07T17:16:28.782Z,16.65
2018-12-07T17:18:59.599Z,17.65
2018-12-07T17:21:31.495Z,19.12
2018-12-07T17:24:02.452Z,14.70
2018-12-07T17:26:33.287Z,17.80
2018-12-07T17:29:03.599Z,15.63
2018-12-07T17:31:34.331Z,15.90
2018-12-07T17:36:45.928Z,12.80
2018-12-07T17:39:16.335Z,14.03
2018-12-07T17:41:46.818Z,13.80
2018-12-07T17:44:17.072Z,16.42
2018-12-07T17:46:48.098Z,13.43
2018-12-07T17:49:18.469Z,14.97
2018-12-07T17:51:49.797Z,14.90
2018-12-07T17:54:19.691Z,14.37
2018-12-07T17:56:50.329Z,13.70
2018-12-07T17:59:20.529Z,12.27
2018-12-07T18:01:50.337Z,13.50
2018-12-07T18:04:20.447Z,69.83
2018-12-07T18:06:50.547Z,22.50
2018-12-07T18:09:21.529Z,14.87
2018-12-07T18:11:51.669Z,17.50
2018-12-07T18:14:22.270Z,15.75
2018-12-07T18:16:52.618Z,14.77
2018-12-07T18:19:22.591Z,15.13
2018-12-07T18:21:52.574Z,13.13
2018-12-07T18:24:22.785Z,11.70
2018-12-07T18:26:53.962Z,12.80
2018-12-07T18:29:24.355Z,12.40
2018-12-07T18:31:54.619Z,13.57
2018-12-07T18:34:25.243Z,11.25
2018-12-07T18:36:56.263Z,13.80
2018-12-07T18:39:26.777Z,11.17
2018-12-07T18:41:57.526Z,12.73
2018-12-07T18:44:28.042Z,10.77
2018-12-07T18:46:59.559Z,13.18
2018-12-07T18:49:29.643Z,12.70
2018-12-07T18:52:00.555Z,11.48
2018-12-07T18:54:30.936Z,9.87
2018-12-07T18:57:00.845Z,9.67
2018-12-07T18:59:30.844Z,8.50
2018-12-07T19:02:01.340Z,10.30
2018-12-07T19:04:31.730Z,11.17
2018-12-07T19:07:02.503Z,11.80
2018-12-07T19:09:32.735Z,10.27
2018-12-07T19:12:02.783Z,11.70
2018-12-07T19:14:33.273Z,13.65
2018-12-07T19:17:03.601Z,12.03
2018-12-07T19:19:34.096Z,12.63
2018-12-07T19:22:04.558Z,16.10
2018-12-07T19:24:34.738Z,12.10
2018-12-07T19:27:05.706Z,12.50
2018-12-07T19:29:37.384Z,13.87
2018-12-07T19:32:07.642Z,12.77
2018-12-07T19:34:38.273Z,11.73
2018-12-07T19:37:08.790Z,11.13
2018-12-07T19:39:39.366Z,11.30
2018-12-07T19:42:10.537Z,14.63
2018-12-07T19:44:40.642Z,14.20
2018-12-07T19:47:11.720Z,13.10
2018-12-07T19:49:43.025Z,12.37
2018-12-07T19:52:13.982Z,13.35
2018-12-07T19:54:44.884Z,11.90
2018-12-07T19:57:15.338Z,11.65
2018-12-07T19:59:45.785Z,11.50
2018-12-07T20:02:17.598Z,11.64
2018-12-07T20:04:47.883Z,16.10
2018-12-07T20:07:20.880Z,14.03
2018-12-07T20:09:51.581Z,14.00
2018-12-07T20:12:22.030Z,13.40
2018-12-07T20:14:52.660Z,13.83
2018-12-07T20:17:23.140Z,14.93
2018-12-07T20:19:53.645Z,15.23
2018-12-07T20:22:24.474Z,13.98
2018-12-07T20:24:55.220Z,14.33
2018-12-07T20:27:25.812Z,10.83
2018-12-07T20:29:56.330Z,12.30
2018-12-07T20:32:26.646Z,16.13
2018-12-07T20:34:56.784Z,52.67
2018-12-07T20:37:27.454Z,17.70
2018-12-07T20:39:57.511Z,22.17
2018-12-07T20:42:28.693Z,29.13
2018-12-07T20:44:58.963Z,31.80
2018-12-07T20:47:29.886Z,19.87
2018-12-07T20:50:00.720Z,31.25
2018-12-07T20:52:31.011Z,33.37
2018-12-07T20:55:01.371Z,82.57
2018-12-07T20:57:31.740Z,99.50
2018-12-07T21:00:02.434Z,41.75
2018-12-07T21:02:33.736Z,39.33
2018-12-07T21:05:53.927Z,26.97
2018-12-07T21:08:43.771Z,16.20
2018-12-07T21:11:24.759Z,11.73
2018-12-07T21:14:03.760Z,14.07
2018-12-07T21:17:38.639Z,17.50
2018-12-07T21:20:18.721Z,13.90
2018-12-07T21:22:49.394Z,16.55
2018-12-07T21:25:20.527Z,13.70
2018-12-07T21:27:50.650Z,12.40
2018-12-07T21:30:58.272Z,11.85
2018-12-07T21:34:37.199Z,11.23
2018-12-07T21:37:07.526Z,10.73
2018-12-07T21:39:46.041Z,15.60
2018-12-07T21:42:18.193Z,11.97
2018-12-07T21:44:48.407Z,12.43
2018-12-07T21:47:39.609Z,10.53
2018-12-07T21:50:14.379Z,9.47
2018-12-07T21:52:44.941Z,13.23
2018-12-07T21:55:16.678Z,13.93
2018-12-07T21:57:47.016Z,12.13
2018-12-07T22:00:17.447Z,14.00
2018-12-07T22:02:47.781Z,12.40
2018-12-07T22:05:20.285Z,12.90
2018-12-07T22:07:50.631Z,12.83
2018-12-07T22:10:20.619Z,13.73
2018-12-07T22:12:50.691Z,13.70
2018-12-07T22:15:20.592Z,13.33
2018-12-07T22:17:50.794Z,13.53
2018-12-07T22:20:26.813Z,15.20
2018-12-07T22:22:56.640Z,13.10
2018-12-07T22:25:26.865Z,13.80
2018-12-07T22:27:56.962Z,15.80
2018-12-07T22:30:28.527Z,13.55
2018-12-07T22:32:58.630Z,13.47
2018-12-07T22:35:29.660Z,15.18
2018-12-07T22:38:00.123Z,14.55
2018-12-07T22:40:30.430Z,16.23
2018-12-07T22:43:00.975Z,12.87
2018-12-07T22:45:31.339Z,14.13
2018-12-07T22:48:01.682Z,14.90
2018-12-07T22:50:31.832Z,16.23
2018-12-07T22:53:01.677Z,13.50
2018-12-07T22:55:31.520Z,13.87
2018-12-07T22:58:01.435Z,13.60
2018-12-07T23:00:31.467Z,14.93
2018-12-07T23:03:01.460Z,11.80
2018-12-07T23:05:31.488Z,12.23
2018-12-07T23:08:01.295Z,12.37
2018-12-07T23:10:31.284Z,11.17
2018-12-07T23:13:01.226Z,10.93
2018-12-07T23:15:31.292Z,11.53
2018-12-07T23:18:01.454Z,14.05
2018-12-07T23:20:31.458Z,11.77
2018-12-07T23:23:01.548Z,13.30
2018-12-07T23:25:31.654Z,13.20
2018-12-07T23:28:01.457Z,12.73
2018-12-07T23:30:31.330Z,16.07
2018-12-07T23:33:01.456Z,15.37
2018-12-07T23:35:31.701Z,14.80
2018-12-07T23:38:01.577Z,17.17
2018-12-07T23:40:31.495Z,14.70
2018-12-07T23:43:02.469Z,18.60
2018-12-07T23:45:32.298Z,16.70
2018-12-07T23:48:02.536Z,16.73
2018-12-07T23:50:32.435Z,17.43
2018-12-07T23:53:02.362Z,17.63
2018-12-07T23:55:32.219Z,18.80
2018-12-07T23:58:02.521Z,17.80
